IBE07MM LEBL-LEMD
Flight info
| Callsign | IBE07MM |
|---|---|
| Flight time | 0h 45m |
| Altitude | 28000 |
| Route | SENIA Z596 CRETA/N0432F290 Z596 NEXAS N975 ADUXO |
| Aircraft | A346/H-SDE2E3FGHIJ3J4J5M1RWXY/LB1D1 |
Departure
| Time | 2026-05-06 17:12 |
|---|---|
| Airport | Josep Tarradellas Barcelona-El Prat Airport (LEBL) |
Arrival
| Time | 2026-05-06 17:58 |
|---|---|
| Airport | Adolfo Suárez Madrid–Barajas Airport (LEMD) |
| Time | Latitude | Longitude | Altitude | Speed | Heading |
|---|---|---|---|---|---|
| 2026-05-06 16:44 | 41.29033 | 2.08122 | 27 ft | 0 kts | 335° |
| 2026-05-06 17:01 | 41.29015 | 2.08131 | 26 ft | 4 kts | 349° |
| 2026-05-06 17:01 | 41.28992 | 2.08131 | 24 ft | 4 kts | 16° |
| 2026-05-06 17:02 | 41.28973 | 2.08117 | 25 ft | 4 kts | 44° |
| 2026-05-06 17:02 | 41.28957 | 2.08090 | 27 ft | 4 kts | 60° |
| 2026-05-06 17:02 | 41.28945 | 2.08059 | 24 ft | 4 kts | 67° |
| 2026-05-06 17:02 | 41.28935 | 2.08026 | 25 ft | 3 kts | 66° |
| 2026-05-06 17:03 | 41.28933 | 2.08021 | 25 ft | 0 kts | 65° |
| 2026-05-06 17:05 | 41.28934 | 2.08021 | 25 ft | 0 kts | 65° |
| 2026-05-06 17:07 | 41.28941 | 2.08043 | 26 ft | 7 kts | 66° |
| 2026-05-06 17:07 | 41.28932 | 2.08102 | 26 ft | 8 kts | 122° |
| 2026-05-06 17:07 | 41.28882 | 2.08157 | 27 ft | 11 kts | 152° |
| 2026-05-06 17:07 | 41.28799 | 2.08208 | 28 ft | 15 kts | 158° |
| 2026-05-06 17:08 | 41.28724 | 2.08280 | 26 ft | 13 kts | 91° |
| 2026-05-06 17:08 | 41.28753 | 2.08409 | 26 ft | 15 kts | 67° |
| 2026-05-06 17:08 | 41.28797 | 2.08544 | 29 ft | 17 kts | 64° |
| 2026-05-06 17:08 | 41.28853 | 2.08701 | 27 ft | 20 kts | 65° |
| 2026-05-06 17:09 | 41.28914 | 2.08881 | 27 ft | 22 kts | 65° |
| 2026-05-06 17:09 | 41.28983 | 2.09077 | 28 ft | 24 kts | 66° |
| 2026-05-06 17:09 | 41.29056 | 2.09294 | 27 ft | 26 kts | 66° |
| 2026-05-06 17:09 | 41.29134 | 2.09520 | 30 ft | 27 kts | 65° |
| 2026-05-06 17:10 | 41.29214 | 2.09755 | 29 ft | 28 kts | 66° |
| 2026-05-06 17:10 | 41.29254 | 2.09873 | 27 ft | 3 kts | 65° |
| 2026-05-06 17:10 | 41.29258 | 2.09884 | 28 ft | 7 kts | 65° |
| 2026-05-06 17:10 | 41.29269 | 2.10024 | 24 ft | 19 kts | 103° |
| 2026-05-06 17:11 | 41.29248 | 2.10207 | 27 ft | 17 kts | 86° |
| 2026-05-06 17:11 | 41.29219 | 2.10252 | 24 ft | 5 kts | 199° |
| 2026-05-06 17:11 | 41.29188 | 2.10221 | 27 ft | 6 kts | 229° |
| 2026-05-06 17:11 | 41.29175 | 2.10193 | 27 ft | 0 kts | 246° |
| 2026-05-06 17:12 | 41.29143 | 2.10101 | 29 ft | 45 kts | 246° |
| 2026-05-06 17:12 | 41.28883 | 2.09348 | 31 ft | 131 kts | 246° |
| 2026-05-06 17:12 | 41.28419 | 2.07984 | 269 ft | 178 kts | 244° |
| 2026-05-06 17:12 | 41.27886 | 2.06439 | 1165 ft | 184 kts | 239° |
| 2026-05-06 17:13 | 41.27045 | 2.05215 | 1959 ft | 183 kts | 214° |
| 2026-05-06 17:13 | 41.25833 | 2.04646 | 2612 ft | 192 kts | 192° |
| 2026-05-06 17:13 | 41.24440 | 2.04530 | 3130 ft | 210 kts | 183° |
| 2026-05-06 17:13 | 41.22932 | 2.04681 | 3678 ft | 224 kts | 175° |
| 2026-05-06 17:14 | 41.21363 | 2.04994 | 4357 ft | 231 kts | 173° |
| 2026-05-06 17:14 | 41.19735 | 2.05286 | 4981 ft | 244 kts | 175° |
| 2026-05-06 17:14 | 41.18001 | 2.05441 | 5616 ft | 254 kts | 188° |
| 2026-05-06 17:14 | 41.16313 | 2.04809 | 6457 ft | 252 kts | 207° |
| 2026-05-06 17:15 | 41.14731 | 2.03773 | 7327 ft | 253 kts | 210° |
| 2026-05-06 17:15 | 41.13346 | 2.02339 | 7975 ft | 258 kts | 238° |
| 2026-05-06 17:15 | 41.12658 | 2.00103 | 8511 ft | 268 kts | 257° |
| 2026-05-06 17:15 | 41.12252 | 1.97658 | 9282 ft | 274 kts | 259° |
| 2026-05-06 17:16 | 41.11848 | 1.95146 | 10142 ft | 277 kts | 258° |
| 2026-05-06 17:16 | 41.11408 | 1.92604 | 10727 ft | 290 kts | 257° |
| 2026-05-06 17:16 | 41.10914 | 1.89915 | 11167 ft | 307 kts | 257° |
| 2026-05-06 17:16 | 41.10378 | 1.87122 | 11554 ft | 325 kts | 256° |
| 2026-05-06 17:17 | 41.09790 | 1.84131 | 11932 ft | 343 kts | 256° |
| 2026-05-06 17:17 | 41.09164 | 1.80987 | 12307 ft | 360 kts | 256° |
| 2026-05-06 17:17 | 41.08507 | 1.77724 | 12927 ft | 369 kts | 255° |
| 2026-05-06 17:17 | 41.07838 | 1.74420 | 13763 ft | 372 kts | 255° |
| 2026-05-06 17:18 | 41.07160 | 1.71085 | 14523 ft | 375 kts | 255° |
| 2026-05-06 17:18 | 41.06475 | 1.67730 | 15327 ft | 377 kts | 255° |
| 2026-05-06 17:18 | 41.05789 | 1.64370 | 16153 ft | 378 kts | 255° |
| 2026-05-06 17:18 | 41.05098 | 1.60995 | 16975 ft | 379 kts | 255° |
| 2026-05-06 17:19 | 41.04405 | 1.57617 | 17786 ft | 380 kts | 255° |
| 2026-05-06 17:19 | 41.03711 | 1.54236 | 18482 ft | 383 kts | 255° |
| 2026-05-06 17:19 | 41.03006 | 1.50807 | 19083 ft | 387 kts | 255° |
| 2026-05-06 17:19 | 41.02288 | 1.47325 | 19693 ft | 391 kts | 255° |
| 2026-05-06 17:20 | 41.01569 | 1.43836 | 20350 ft | 393 kts | 255° |
| 2026-05-06 17:20 | 41.00845 | 1.40331 | 21028 ft | 395 kts | 255° |
| 2026-05-06 17:20 | 41.00118 | 1.36817 | 21695 ft | 396 kts | 255° |
| 2026-05-06 17:20 | 40.99385 | 1.33282 | 22356 ft | 398 kts | 255° |
| 2026-05-06 17:21 | 40.98656 | 1.29771 | 22987 ft | 400 kts | 255° |
| 2026-05-06 17:21 | 40.97911 | 1.26193 | 23597 ft | 403 kts | 255° |
| 2026-05-06 17:21 | 40.97164 | 1.22609 | 24117 ft | 405 kts | 254° |
| 2026-05-06 17:21 | 40.96408 | 1.18989 | 24634 ft | 407 kts | 254° |
| 2026-05-06 17:22 | 40.95649 | 1.15358 | 25147 ft | 409 kts | 254° |
| 2026-05-06 17:22 | 40.94894 | 1.11761 | 25641 ft | 412 kts | 254° |
| 2026-05-06 17:22 | 40.94125 | 1.08091 | 26094 ft | 415 kts | 254° |
| 2026-05-06 17:22 | 40.93347 | 1.04385 | 26578 ft | 418 kts | 254° |
| 2026-05-06 17:23 | 40.92564 | 1.00660 | 27089 ft | 420 kts | 254° |
| 2026-05-06 17:23 | 40.91779 | 0.96939 | 27672 ft | 419 kts | 254° |
| 2026-05-06 17:23 | 40.90994 | 0.93225 | 28279 ft | 419 kts | 254° |
| 2026-05-06 17:23 | 40.90208 | 0.89508 | 28759 ft | 419 kts | 253° |
| 2026-05-06 17:24 | 40.89420 | 0.85796 | 28901 ft | 418 kts | 253° |
| 2026-05-06 17:24 | 40.87930 | 0.78360 | 28901 ft | 418 kts | 257° |
| 2026-05-06 17:25 | 40.87107 | 0.70753 | 28904 ft | 422 kts | 264° |
| 2026-05-06 17:25 | 40.86987 | 0.62954 | 28910 ft | 424 kts | 268° |
| 2026-05-06 17:26 | 40.87025 | 0.55141 | 28908 ft | 424 kts | 268° |
| 2026-05-06 17:26 | 40.87069 | 0.47322 | 28910 ft | 424 kts | 268° |
| 2026-05-06 17:27 | 40.87113 | 0.39563 | 28910 ft | 424 kts | 268° |
| 2026-05-06 17:27 | 40.87148 | 0.31724 | 28909 ft | 426 kts | 268° |
| 2026-05-06 17:28 | 40.87182 | 0.23864 | 28923 ft | 427 kts | 268° |
| 2026-05-06 17:28 | 40.87209 | 0.15996 | 28916 ft | 427 kts | 268° |
| 2026-05-06 17:29 | 40.87229 | 0.08140 | 28916 ft | 426 kts | 268° |
| 2026-05-06 17:29 | 40.87249 | 0.00341 | 28914 ft | 426 kts | 268° |
| 2026-05-06 17:30 | 40.87262 | -0.07542 | 28918 ft | 430 kts | 268° |
| 2026-05-06 17:30 | 40.87270 | -0.15474 | 28921 ft | 430 kts | 268° |
| 2026-05-06 17:31 | 40.87271 | -0.23343 | 28922 ft | 430 kts | 268° |
| 2026-05-06 17:31 | 40.87267 | -0.31265 | 28926 ft | 430 kts | 268° |
| 2026-05-06 17:32 | 40.87256 | -0.39182 | 28922 ft | 430 kts | 268° |
| 2026-05-06 17:32 | 40.87240 | -0.47110 | 28927 ft | 430 kts | 268° |
| 2026-05-06 17:33 | 40.87218 | -0.55038 | 28929 ft | 430 kts | 268° |
| 2026-05-06 17:33 | 40.87191 | -0.62906 | 28926 ft | 430 kts | 268° |
| 2026-05-06 17:34 | 40.87158 | -0.70829 | 28928 ft | 430 kts | 268° |
| 2026-05-06 17:34 | 40.86630 | -0.78697 | 28927 ft | 430 kts | 259° |
| 2026-05-06 17:35 | 40.85121 | -0.86331 | 28929 ft | 433 kts | 251° |
| 2026-05-06 17:35 | 40.83084 | -0.93841 | 28930 ft | 433 kts | 250° |
| 2026-05-06 17:36 | 40.79983 | -1.05059 | 28931 ft | 433 kts | 250° |
| 2026-05-06 17:36 | 40.77948 | -1.12555 | 28931 ft | 433 kts | 251° |
| 2026-05-06 17:37 | 40.76095 | -1.20079 | 28931 ft | 434 kts | 252° |
| 2026-05-06 17:37 | 40.74225 | -1.27668 | 28930 ft | 434 kts | 252° |
| 2026-05-06 17:38 | 40.72330 | -1.35270 | 28931 ft | 435 kts | 252° |
| 2026-05-06 17:38 | 40.70428 | -1.42849 | 28931 ft | 435 kts | 252° |
| 2026-05-06 17:39 | 40.68529 | -1.50379 | 28928 ft | 435 kts | 251° |
| 2026-05-06 17:39 | 40.66606 | -1.57970 | 28931 ft | 437 kts | 251° |
| 2026-05-06 17:40 | 40.64670 | -1.65593 | 28930 ft | 438 kts | 251° |
| 2026-05-06 17:40 | 40.62724 | -1.73229 | 28927 ft | 438 kts | 251° |
| 2026-05-06 17:41 | 40.60785 | -1.80813 | 28924 ft | 438 kts | 251° |
| 2026-05-06 17:41 | 40.58833 | -1.88430 | 28925 ft | 438 kts | 251° |
| 2026-05-06 17:42 | 40.56872 | -1.96051 | 28927 ft | 440 kts | 251° |
| 2026-05-06 17:42 | 40.54900 | -2.03689 | 28921 ft | 441 kts | 251° |
| 2026-05-06 17:43 | 40.52924 | -2.11330 | 28923 ft | 441 kts | 251° |
| 2026-05-06 17:43 | 40.50952 | -2.18929 | 28260 ft | 436 kts | 251° |
| 2026-05-06 17:44 | 40.50298 | -2.21443 | 27526 ft | 441 kts | 251° |
| 2026-05-06 17:44 | 40.48970 | -2.26530 | 26600 ft | 441 kts | 251° |
| 2026-05-06 17:44 | 40.47982 | -2.30313 | 26162 ft | 434 kts | 251° |
| 2026-05-06 17:44 | 40.47004 | -2.34053 | 25615 ft | 431 kts | 251° |
| 2026-05-06 17:45 | 40.46346 | -2.36567 | 25215 ft | 429 kts | 251° |
| 2026-05-06 17:45 | 40.45388 | -2.40219 | 24697 ft | 426 kts | 251° |
| 2026-05-06 17:45 | 40.44424 | -2.43892 | 24163 ft | 423 kts | 251° |
| 2026-05-06 17:45 | 40.43466 | -2.47534 | 23649 ft | 420 kts | 251° |
| 2026-05-06 17:46 | 40.42514 | -2.51149 | 23060 ft | 417 kts | 251° |
| 2026-05-06 17:46 | 40.41565 | -2.54748 | 22443 ft | 414 kts | 251° |
| 2026-05-06 17:46 | 40.40624 | -2.58309 | 21858 ft | 411 kts | 251° |
| 2026-05-06 17:46 | 40.39687 | -2.61849 | 21263 ft | 409 kts | 251° |
| 2026-05-06 17:47 | 40.38751 | -2.65379 | 20670 ft | 407 kts | 251° |
| 2026-05-06 17:47 | 40.37823 | -2.68879 | 20095 ft | 405 kts | 251° |
| 2026-05-06 17:47 | 40.36894 | -2.72375 | 19504 ft | 403 kts | 251° |
| 2026-05-06 17:47 | 40.35983 | -2.75798 | 18959 ft | 401 kts | 251° |
| 2026-05-06 17:48 | 40.35066 | -2.79241 | 18407 ft | 397 kts | 251° |
| 2026-05-06 17:48 | 40.34160 | -2.82635 | 17604 ft | 386 kts | 251° |
| 2026-05-06 17:48 | 40.33287 | -2.85903 | 16900 ft | 373 kts | 250° |
| 2026-05-06 17:48 | 40.32440 | -2.89065 | 16220 ft | 362 kts | 250° |
| 2026-05-06 17:49 | 40.31616 | -2.92142 | 15544 ft | 352 kts | 250° |
| 2026-05-06 17:49 | 40.30812 | -2.95137 | 14849 ft | 345 kts | 250° |
| 2026-05-06 17:49 | 40.30017 | -2.98094 | 14087 ft | 342 kts | 250° |
| 2026-05-06 17:49 | 40.29230 | -3.01020 | 13294 ft | 339 kts | 250° |
| 2026-05-06 17:50 | 40.28444 | -3.03929 | 12451 ft | 336 kts | 250° |
| 2026-05-06 17:50 | 40.27669 | -3.06798 | 11651 ft | 332 kts | 250° |
| 2026-05-06 17:50 | 40.26898 | -3.09652 | 10702 ft | 333 kts | 250° |
| 2026-05-06 17:50 | 40.26141 | -3.12551 | 9613 ft | 339 kts | 255° |
| 2026-05-06 17:51 | 40.26018 | -3.15636 | 8412 ft | 345 kts | 279° |
| 2026-05-06 17:51 | 40.26457 | -3.18694 | 7351 ft | 346 kts | 280° |
| 2026-05-06 17:51 | 40.26889 | -3.21776 | 6573 ft | 339 kts | 280° |
| 2026-05-06 17:51 | 40.27292 | -3.24772 | 6080 ft | 324 kts | 280° |
| 2026-05-06 17:52 | 40.27666 | -3.27586 | 5908 ft | 301 kts | 280° |
| 2026-05-06 17:52 | 40.28008 | -3.30181 | 5908 ft | 276 kts | 280° |
| 2026-05-06 17:52 | 40.28472 | -3.32528 | 5939 ft | 258 kts | 296° |
| 2026-05-06 17:52 | 40.29334 | -3.34526 | 5921 ft | 244 kts | 304° |
| 2026-05-06 17:53 | 40.30361 | -3.36228 | 5799 ft | 235 kts | 315° |
| 2026-05-06 17:53 | 40.31559 | -3.37617 | 5590 ft | 228 kts | 323° |
| 2026-05-06 17:53 | 40.32795 | -3.38832 | 5373 ft | 216 kts | 324° |
| 2026-05-06 17:53 | 40.33979 | -3.39983 | 5148 ft | 206 kts | 324° |
| 2026-05-06 17:54 | 40.35100 | -3.41100 | 4863 ft | 200 kts | 323° |
| 2026-05-06 17:54 | 40.36197 | -3.42214 | 4490 ft | 199 kts | 323° |
| 2026-05-06 17:54 | 40.37287 | -3.43331 | 4141 ft | 198 kts | 323° |
| 2026-05-06 17:54 | 40.38366 | -3.44437 | 3820 ft | 197 kts | 322° |
| 2026-05-06 17:55 | 40.39442 | -3.45541 | 3423 ft | 194 kts | 322° |
| 2026-05-06 17:55 | 40.40472 | -3.46595 | 3200 ft | 182 kts | 322° |
| 2026-05-06 17:55 | 40.41437 | -3.47579 | 2970 ft | 169 kts | 322° |
| 2026-05-06 17:55 | 40.42350 | -3.48530 | 2809 ft | 168 kts | 321° |
| 2026-05-06 17:56 | 40.43266 | -3.49499 | 2753 ft | 170 kts | 321° |
| 2026-05-06 17:56 | 40.44177 | -3.50461 | 2635 ft | 169 kts | 321° |
| 2026-05-06 17:56 | 40.45107 | -3.51400 | 2505 ft | 169 kts | 322° |
| 2026-05-06 17:56 | 40.46037 | -3.52321 | 2249 ft | 167 kts | 322° |
| 2026-05-06 17:57 | 40.46966 | -3.53257 | 2038 ft | 169 kts | 323° |
| 2026-05-06 17:57 | 40.47884 | -3.54172 | 1936 ft | 151 kts | 323° |
| 2026-05-06 17:57 | 40.48538 | -3.54831 | 1950 ft | 86 kts | 322° |
| 2026-05-06 17:57 | 40.48887 | -3.55182 | 1961 ft | 56 kts | 323° |
| 2026-05-06 17:58 | 40.49070 | -3.55366 | 1963 ft | 29 kts | 324° |
| 2026-05-06 17:58 | 40.49203 | -3.55575 | 1967 ft | 31 kts | 297° |
| 2026-05-06 17:58 | 40.49246 | -3.55708 | 1965 ft | 0 kts | 293° |
| 2026-05-06 17:59 | 40.49249 | -3.55718 | 1968 ft | 3 kts | 293° |
| 2026-05-06 17:59 | 40.49266 | -3.55768 | 1961 ft | 9 kts | 292° |
| 2026-05-06 17:59 | 40.49268 | -3.55777 | 1960 ft | 0 kts | 292° |
| 2026-05-06 18:00 | 40.49273 | -3.55790 | 1972 ft | 4 kts | 292° |
| 2026-05-06 18:00 | 40.49290 | -3.55855 | 1972 ft | 11 kts | 282° |
| 2026-05-06 18:00 | 40.49299 | -3.55982 | 1968 ft | 17 kts | 272° |
| 2026-05-06 18:01 | 40.49298 | -3.56024 | 1967 ft | 12 kts | 269° |
| 2026-05-06 18:01 | 40.49260 | -3.56124 | 1967 ft | 14 kts | 201° |
| 2026-05-06 18:01 | 40.49160 | -3.56136 | 1967 ft | 15 kts | 180° |
| 2026-05-06 18:01 | 40.49045 | -3.56138 | 1967 ft | 18 kts | 180° |
| 2026-05-06 18:02 | 40.48912 | -3.56137 | 1967 ft | 20 kts | 180° |
| 2026-05-06 18:02 | 40.48786 | -3.56178 | 1968 ft | 19 kts | 236° |
| 2026-05-06 18:02 | 40.48769 | -3.56349 | 1970 ft | 19 kts | 271° |
| 2026-05-06 18:02 | 40.48770 | -3.56524 | 1981 ft | 19 kts | 267° |
| 2026-05-06 18:03 | 40.48766 | -3.56696 | 1986 ft | 19 kts | 269° |
| 2026-05-06 18:03 | 40.48765 | -3.56863 | 1988 ft | 16 kts | 270° |
| 2026-05-06 18:03 | 40.48789 | -3.56978 | 1989 ft | 10 kts | 324° |
| 2026-05-06 18:03 | 40.48862 | -3.57001 | 1989 ft | 12 kts | 359° |
| 2026-05-06 18:04 | 40.48937 | -3.56999 | 1987 ft | 7 kts | 0° |
| 2026-05-06 18:04 | 40.48993 | -3.57002 | 1987 ft | 9 kts | 349° |
| 2026-05-06 18:04 | 40.49028 | -3.57002 | 1988 ft | 2 kts | 27° |
| 2026-05-06 18:04 | 40.49046 | -3.56977 | 1989 ft | 5 kts | 54° |
| 2026-05-06 18:05 | 40.49057 | -3.56916 | 1988 ft | 9 kts | 88° |
| 2026-05-06 18:05 | 40.49057 | -3.56887 | 1988 ft | 1 kts | 89° |
| 2026-05-06 18:05 | 40.49058 | -3.56874 | 1987 ft | 2 kts | 89° |
| 2026-05-06 18:05 | 40.49058 | -3.56871 | 1987 ft | 0 kts | 89° |
| 2026-05-06 18:06 | 40.49058 | -3.56876 | 1987 ft | 0 kts | 91° |
| 2026-05-06 18:06 | 40.49058 | -3.56878 | 1987 ft | 0 kts | 90° |